createdAt,value
2023-05-07T00:01:06.886Z,61.47
2023-05-07T00:03:34.955Z,61.54
2023-05-07T00:06:03.105Z,61.45
2023-05-07T00:08:31.150Z,61.42
2023-05-07T00:10:59.012Z,61.67
2023-05-07T00:13:27.091Z,61.77
2023-05-07T00:15:55.091Z,62.60
2023-05-07T00:18:24.395Z,62.35
2023-05-07T00:20:52.299Z,62.35
2023-05-07T00:23:20.238Z,62.48
2023-05-07T00:25:48.108Z,62.83
2023-05-07T00:28:16.152Z,62.74
2023-05-07T00:30:44.043Z,62.92
2023-05-07T00:33:11.983Z,62.91
2023-05-07T00:35:41.548Z,63.13
2023-05-07T00:38:09.489Z,63.92
2023-05-07T00:40:37.332Z,64.19
2023-05-07T00:43:05.209Z,63.62
2023-05-07T00:45:33.187Z,63.86
2023-05-07T00:48:02.589Z,64.01
2023-05-07T00:50:31.405Z,64.45
2023-05-07T00:53:01.101Z,64.50
2023-05-07T00:55:29.140Z,64.46
2023-05-07T00:57:57.223Z,64.21
2023-05-07T01:00:26.265Z,64.38
2023-05-07T01:02:54.301Z,64.57
2023-05-07T01:05:25.431Z,65.04
2023-05-07T01:07:56.194Z,64.93
2023-05-07T01:10:26.552Z,64.78
2023-05-07T01:12:55.926Z,64.90
2023-05-07T01:15:23.949Z,64.94
2023-05-07T01:17:51.825Z,65.53
2023-05-07T01:20:20.811Z,65.11
2023-05-07T01:22:51.273Z,66.04
2023-05-07T01:25:19.656Z,65.54
2023-05-07T01:27:47.695Z,65.52
2023-05-07T01:30:15.975Z,65.47
2023-05-07T01:32:47.550Z,65.85
2023-05-07T01:35:20.707Z,66.07
2023-05-07T01:37:51.290Z,65.86
2023-05-07T01:40:19.641Z,66.55
2023-05-07T01:42:49.362Z,66.18
2023-05-07T01:45:17.238Z,66.93
2023-05-07T01:47:46.014Z,67.08
2023-05-07T01:50:14.956Z,66.38
2023-05-07T01:52:43.081Z,66.50
2023-05-07T01:55:12.689Z,66.75
2023-05-07T01:57:41.030Z,67.14
2023-05-07T02:00:10.280Z,67.69
2023-05-07T02:02:39.321Z,67.26
2023-05-07T02:05:08.178Z,67.95
2023-05-07T02:07:36.288Z,67.33
2023-05-07T02:10:05.063Z,68.13
2023-05-07T02:12:34.399Z,68.16
2023-05-07T02:15:02.661Z,68.55
2023-05-07T02:17:32.878Z,68.15
2023-05-07T02:20:00.985Z,68.14
2023-05-07T02:22:28.862Z,68.44
2023-05-07T02:24:56.886Z,68.61
2023-05-07T02:27:24.871Z,68.59
2023-05-07T02:29:54.091Z,69.25
2023-05-07T02:32:22.145Z,68.90
2023-05-07T02:34:53.381Z,69.75
2023-05-07T02:37:21.193Z,69.90
2023-05-07T02:39:49.132Z,69.84
2023-05-07T02:42:17.036Z,69.72
2023-05-07T02:44:44.874Z,70.41
2023-05-07T02:47:16.368Z,70.64
2023-05-07T02:49:44.234Z,70.08
2023-05-07T02:52:12.044Z,70.14
2023-05-07T02:54:39.915Z,70.50
2023-05-07T02:57:07.798Z,70.64
2023-05-07T02:59:35.671Z,70.28
2023-05-07T03:02:03.578Z,70.53
2023-05-07T03:04:32.918Z,71.08
2023-05-07T03:07:00.758Z,71.10
2023-05-07T03:09:28.716Z,71.23
2023-05-07T03:11:56.786Z,71.22
2023-05-07T03:14:24.710Z,71.52
2023-05-07T03:16:52.669Z,71.64
2023-05-07T03:19:20.586Z,72.10
2023-05-07T03:21:49.895Z,72.58
2023-05-07T03:24:17.905Z,72.09
2023-05-07T03:26:45.917Z,72.11
2023-05-07T03:29:13.761Z,72.70
2023-05-07T03:31:41.718Z,73.11
2023-05-07T03:34:09.681Z,73.07
2023-05-07T03:36:37.549Z,73.23
2023-05-07T03:39:06.874Z,72.85
2023-05-07T03:41:35.076Z,72.65
2023-05-07T03:44:02.903Z,73.41
2023-05-07T03:46:30.915Z,72.79
2023-05-07T03:48:58.817Z,73.01
2023-05-07T03:51:26.793Z,73.31
2023-05-07T03:53:54.793Z,73.72
2023-05-07T03:56:24.207Z,74.09
2023-05-07T03:58:52.068Z,73.76
2023-05-07T04:01:20.021Z,73.74
2023-05-07T04:03:48.430Z,73.62
2023-05-07T04:06:18.228Z,74.15
2023-05-07T04:08:46.169Z,73.66
2023-05-07T04:11:14.114Z,73.86
2023-05-07T04:13:43.399Z,73.96
2023-05-07T04:16:11.362Z,74.16
2023-05-07T04:18:39.514Z,73.62
2023-05-07T04:21:07.690Z,74.25
2023-05-07T04:23:35.588Z,74.00
2023-05-07T04:26:04.290Z,74.09
2023-05-07T04:28:32.162Z,74.01
2023-05-07T04:31:01.416Z,74.13
2023-05-07T04:33:29.360Z,74.24
2023-05-07T04:35:57.541Z,74.58
2023-05-07T04:38:25.604Z,74.01
2023-05-07T04:40:53.516Z,73.99
2023-05-07T04:43:21.795Z,73.81
2023-05-07T04:45:50.385Z,73.90
2023-05-07T04:48:20.422Z,74.12
2023-05-07T04:50:50.299Z,73.78
2023-05-07T04:53:18.746Z,73.47
2023-05-07T04:55:47.177Z,73.39
2023-05-07T04:58:15.481Z,73.08
2023-05-07T05:00:43.481Z,72.91
2023-05-07T05:03:12.338Z,72.53
2023-05-07T05:05:41.728Z,72.41
2023-05-07T05:08:10.897Z,71.99
2023-05-07T05:10:38.827Z,71.82
2023-05-07T05:13:07.157Z,71.44
2023-05-07T05:15:38.294Z,71.25
2023-05-07T05:18:06.425Z,71.09
2023-05-07T05:20:34.632Z,70.77
2023-05-07T05:23:03.837Z,70.96
2023-05-07T05:25:31.752Z,70.53
2023-05-07T05:28:00.100Z,70.23
2023-05-07T05:30:27.965Z,70.24
2023-05-07T05:32:56.066Z,70.23
2023-05-07T05:35:23.984Z,69.78
2023-05-07T05:37:51.892Z,69.63
2023-05-07T05:40:23.011Z,69.34
2023-05-07T05:42:51.159Z,69.19
2023-05-07T05:45:18.987Z,69.35
2023-05-07T05:47:48.300Z,69.05
2023-05-07T05:50:16.302Z,68.82
2023-05-07T05:52:44.217Z,68.63
2023-05-07T05:55:12.326Z,68.77
2023-05-07T05:57:41.720Z,68.41
2023-05-07T06:00:12.158Z,67.68
2023-05-07T06:02:40.408Z,67.85
2023-05-07T06:05:09.291Z,67.34
2023-05-07T06:07:37.177Z,66.84
2023-05-07T06:10:05.623Z,66.82
2023-05-07T06:12:33.836Z,66.95
2023-05-07T06:15:03.530Z,66.79
2023-05-07T06:17:31.760Z,65.93
2023-05-07T06:19:59.804Z,65.85
2023-05-07T06:22:27.617Z,65.48
2023-05-07T06:24:55.545Z,65.80
2023-05-07T06:27:23.547Z,65.13
2023-05-07T06:29:51.359Z,63.82
2023-05-07T06:32:22.110Z,63.74
2023-05-07T06:34:50.228Z,63.55
2023-05-07T06:37:18.060Z,62.92
2023-05-07T06:39:45.927Z,63.38
2023-05-07T06:42:13.872Z,63.01
2023-05-07T06:44:41.764Z,62.48
2023-05-07T06:47:09.648Z,61.71
2023-05-07T06:49:39.242Z,61.63
2023-05-07T06:52:07.103Z,61.24
2023-05-07T06:54:35.057Z,60.89
2023-05-07T06:57:03.004Z,60.19
2023-05-07T06:59:30.824Z,59.73
2023-05-07T07:01:58.855Z,59.48
2023-05-07T07:04:27.178Z,59.54
2023-05-07T07:06:57.742Z,59.08
2023-05-07T07:09:25.645Z,59.08
2023-05-07T07:11:53.635Z,58.69
2023-05-07T07:14:21.609Z,58.84
2023-05-07T07:16:49.752Z,60.26
2023-05-07T07:19:17.819Z,60.42
2023-05-07T07:21:46.147Z,57.85
2023-05-07T07:24:20.190Z,54.75
2023-05-07T07:26:48.390Z,55.48
2023-05-07T07:29:16.303Z,55.11
2023-05-07T07:31:44.301Z,55.29
2023-05-07T07:34:12.275Z,54.58
2023-05-07T07:36:46.318Z,52.89
2023-05-07T07:39:16.802Z,49.86
2023-05-07T07:41:44.655Z,49.13
2023-05-07T07:44:16.045Z,48.95
2023-05-07T07:46:44.656Z,47.92
2023-05-07T07:49:12.549Z,47.99
2023-05-07T07:51:40.435Z,47.67
2023-05-07T07:54:08.609Z,47.07
2023-05-07T07:56:37.842Z,45.77
2023-05-07T07:59:08.153Z,44.76
2023-05-07T08:01:36.551Z,44.01
2023-05-07T08:04:06.664Z,41.18
2023-05-07T08:06:34.775Z,40.50
2023-05-07T08:09:03.497Z,41.54
2023-05-07T08:11:31.354Z,41.41
2023-05-07T08:14:01.282Z,38.82
2023-05-07T08:18:58.896Z,40.17
2023-05-07T08:21:27.280Z,40.32
2023-05-07T08:23:55.262Z,40.61
2023-05-07T08:26:23.072Z,40.09
2023-05-07T08:28:51.011Z,39.26
2023-05-07T08:31:20.653Z,39.30
2023-05-07T08:33:52.374Z,37.71
2023-05-07T08:36:20.952Z,37.98
2023-05-07T08:38:52.839Z,36.58
2023-05-07T08:41:28.279Z,35.54
2023-05-07T08:44:00.494Z,35.13
2023-05-07T08:46:33.971Z,36.23
2023-05-07T08:49:04.905Z,37.00
2023-05-07T08:51:33.154Z,36.57
2023-05-07T08:54:03.469Z,35.57
2023-05-07T08:56:31.728Z,34.46
2023-05-07T08:58:59.934Z,35.27
2023-05-07T09:01:29.430Z,34.41
2023-05-07T09:03:57.542Z,32.87
2023-05-07T09:06:25.849Z,33.75
2023-05-07T09:08:55.059Z,34.02
2023-05-07T09:11:24.751Z,34.28
2023-05-07T09:13:56.543Z,33.44
2023-05-07T09:16:24.558Z,33.30
2023-05-07T09:18:56.179Z,32.18
2023-05-07T09:21:24.817Z,32.36
2023-05-07T09:23:53.392Z,33.12
2023-05-07T09:26:24.092Z,32.63
2023-05-07T09:28:52.234Z,32.38
2023-05-07T09:31:21.590Z,30.56
2023-05-07T09:33:49.809Z,31.67
2023-05-07T09:36:20.042Z,31.39
2023-05-07T09:38:48.410Z,31.61
2023-05-07T09:41:16.333Z,32.16
2023-05-07T09:43:44.185Z,31.90
2023-05-07T09:46:15.161Z,30.71
2023-05-07T09:48:44.773Z,30.28
2023-05-07T09:51:23.826Z,29.97
2023-05-07T09:53:54.485Z,30.07
2023-05-07T09:56:25.526Z,30.39
2023-05-07T09:58:56.228Z,29.83
2023-05-07T10:01:25.180Z,29.71
2023-05-07T10:03:54.912Z,29.16
2023-05-07T10:06:27.729Z,28.91
2023-05-07T10:08:56.666Z,28.97
2023-05-07T10:11:25.155Z,28.83
2023-05-07T10:13:55.183Z,27.97
2023-05-07T10:16:23.511Z,28.30
2023-05-07T10:18:52.225Z,28.63
2023-05-07T10:21:21.483Z,28.03
2023-05-07T10:23:52.305Z,28.44
2023-05-07T10:26:23.872Z,28.41
2023-05-07T10:28:57.497Z,28.15
2023-05-07T10:31:46.772Z,29.29
2023-05-07T10:34:21.180Z,29.92
2023-05-07T10:36:49.847Z,29.79
2023-05-07T10:39:21.604Z,29.17
2023-05-07T10:41:50.050Z,28.77
2023-05-07T10:44:28.015Z,28.69
2023-05-07T10:47:12.202Z,29.22
2023-05-07T10:50:25.566Z,28.88
2023-05-07T10:53:27.647Z,28.88
2023-05-07T10:56:28.647Z,29.24
2023-05-07T10:58:56.628Z,29.57
2023-05-07T11:01:59.273Z,28.81
2023-05-07T11:04:28.839Z,29.38
2023-05-07T11:07:26.820Z,29.11
2023-05-07T11:10:05.912Z,29.02
2023-05-07T11:12:57.485Z,28.32
2023-05-07T11:15:40.118Z,28.67
2023-05-07T11:18:08.162Z,29.03
2023-05-07T11:20:53.568Z,28.87
2023-05-07T11:23:59.775Z,27.87
2023-05-07T11:26:29.329Z,28.50
2023-05-07T11:29:01.268Z,28.22
2023-05-07T11:31:31.194Z,28.36
2023-05-07T11:33:59.913Z,28.23
2023-05-07T11:36:33.091Z,27.97
2023-05-07T11:39:01.117Z,27.32
2023-05-07T11:41:36.346Z,28.01
2023-05-07T11:44:05.900Z,28.42
2023-05-07T11:46:34.495Z,29.04
2023-05-07T11:49:03.083Z,29.71
2023-05-07T11:51:31.115Z,29.65
2023-05-07T11:53:58.939Z,29.74
2023-05-07T11:56:26.956Z,29.63
2023-05-07T11:58:54.855Z,29.15
2023-05-07T12:01:24.435Z,28.95
2023-05-07T12:03:52.623Z,29.08
2023-05-07T12:06:21.142Z,28.90
2023-05-07T12:08:49.355Z,29.12
2023-05-07T12:11:24.910Z,28.86
2023-05-07T12:13:53.231Z,28.86
2023-05-07T12:16:21.904Z,28.72
2023-05-07T12:18:53.826Z,28.43
2023-05-07T12:21:21.937Z,28.27
2023-05-07T12:23:50.144Z,27.12
2023-05-07T12:26:18.102Z,25.96
2023-05-07T12:28:46.148Z,25.48
2023-05-07T12:31:16.669Z,26.20
2023-05-07T12:33:44.860Z,27.18
2023-05-07T12:36:15.466Z,27.52
2023-05-07T12:38:43.311Z,27.33
2023-05-07T12:41:13.572Z,26.07
2023-05-07T12:43:41.628Z,25.14
2023-05-07T12:46:10.150Z,24.74
2023-05-07T12:48:39.845Z,24.68
2023-05-07T12:51:11.227Z,24.51
2023-05-07T12:53:44.120Z,23.00
2023-05-07T12:56:12.439Z,24.01
2023-05-07T12:58:40.295Z,23.98
2023-05-07T13:01:11.171Z,22.86
2023-05-07T13:03:40.642Z,23.17
2023-05-07T13:06:10.697Z,23.22
2023-05-07T13:08:41.524Z,22.96
2023-05-07T13:11:12.271Z,22.11
2023-05-07T13:13:41.627Z,22.59
2023-05-07T13:16:12.050Z,22.79
2023-05-07T13:18:41.567Z,22.12
2023-05-07T13:21:11.111Z,22.05
2023-05-07T13:23:39.871Z,21.75
2023-05-07T13:26:22.528Z,21.22
2023-05-07T13:28:55.765Z,20.77
2023-05-07T13:31:23.774Z,21.67
2023-05-07T13:33:51.820Z,21.79
2023-05-07T13:36:19.848Z,21.03
2023-05-07T13:38:48.154Z,21.38
2023-05-07T13:41:16.513Z,22.29
2023-05-07T13:43:44.465Z,22.13
2023-05-07T13:46:14.085Z,21.86
2023-05-07T13:48:42.040Z,22.12
2023-05-07T13:51:10.517Z,22.75
2023-05-07T13:53:38.338Z,23.15
2023-05-07T13:56:07.035Z,23.39
2023-05-07T13:58:42.225Z,23.03
2023-05-07T14:01:17.769Z,21.96
2023-05-07T14:03:46.176Z,22.20
2023-05-07T14:06:14.163Z,22.51
2023-05-07T14:08:42.057Z,22.51
2023-05-07T14:11:10.187Z,22.64
2023-05-07T14:13:38.149Z,22.45
2023-05-07T14:16:06.986Z,22.74
2023-05-07T14:18:38.250Z,22.76
2023-05-07T14:21:07.398Z,22.71
2023-05-07T14:23:35.342Z,22.68
2023-05-07T14:26:03.356Z,22.55
2023-05-07T14:28:31.280Z,22.52
2023-05-07T14:30:59.244Z,22.37
2023-05-07T14:33:27.476Z,22.18
2023-05-07T14:35:56.723Z,22.23
2023-05-07T14:38:24.610Z,21.94
2023-05-07T14:40:53.377Z,21.76
2023-05-07T14:43:21.288Z,22.11
2023-05-07T14:45:49.106Z,21.96
2023-05-07T14:48:20.989Z,21.86
2023-05-07T14:50:49.384Z,22.69
2023-05-07T14:53:18.895Z,22.82
2023-05-07T14:55:46.833Z,23.13
2023-05-07T14:58:14.804Z,23.08
2023-05-07T15:00:43.003Z,23.26
2023-05-07T15:03:12.168Z,23.61
2023-05-07T15:05:40.149Z,24.21
2023-05-07T15:08:08.102Z,24.79
2023-05-07T15:10:42.245Z,24.50
2023-05-07T15:13:14.685Z,24.45
2023-05-07T15:15:45.708Z,24.49
2023-05-07T15:18:13.884Z,24.83
2023-05-07T15:20:42.449Z,25.25
2023-05-07T15:23:13.231Z,25.83
2023-05-07T15:25:42.968Z,26.09
2023-05-07T15:28:10.884Z,26.19
2023-05-07T15:30:38.740Z,26.18
2023-05-07T15:33:06.930Z,26.41
2023-05-07T15:35:34.979Z,26.47
2023-05-07T15:38:04.514Z,26.63
2023-05-07T15:40:32.685Z,26.55
2023-05-07T15:43:02.274Z,26.97
2023-05-07T15:45:30.358Z,27.09
2023-05-07T15:47:58.342Z,27.14
2023-05-07T15:50:26.230Z,27.34
2023-05-07T15:52:54.248Z,27.46
2023-05-07T15:55:22.263Z,27.69
2023-05-07T15:57:50.187Z,27.77
2023-05-07T16:00:20.105Z,27.87
2023-05-07T16:02:48.189Z,27.92
2023-05-07T16:05:16.092Z,27.33
2023-05-07T16:07:44.481Z,27.01
2023-05-07T16:10:13.022Z,27.15
2023-05-07T16:12:40.886Z,27.41
2023-05-07T16:15:09.757Z,27.67
2023-05-07T16:17:39.506Z,27.86
2023-05-07T16:20:09.212Z,28.20
2023-05-07T16:22:37.810Z,28.32
2023-05-07T16:25:06.469Z,28.66
2023-05-07T16:27:34.352Z,29.15
2023-05-07T16:30:02.272Z,28.93
2023-05-07T16:32:30.240Z,28.62
2023-05-07T16:34:59.594Z,28.37
2023-05-07T16:37:27.523Z,28.36
2023-05-07T16:39:56.594Z,28.37
2023-05-07T16:42:24.417Z,28.47
2023-05-07T16:44:52.361Z,28.23
2023-05-07T16:47:20.357Z,28.26
2023-05-07T16:49:48.585Z,28.57
2023-05-07T16:52:18.219Z,28.72
2023-05-07T16:54:46.104Z,28.95
2023-05-07T16:57:14.213Z,29.62
2023-05-07T16:59:42.501Z,29.70
2023-05-07T17:02:10.504Z,29.61
2023-05-07T17:04:38.426Z,29.76
2023-05-07T17:07:06.612Z,30.05
2023-05-07T17:09:35.976Z,30.41
2023-05-07T17:12:03.954Z,30.78
2023-05-07T17:14:31.830Z,31.44
2023-05-07T17:16:59.746Z,32.13
2023-05-07T17:19:27.570Z,32.53
2023-05-07T17:21:55.626Z,32.59
2023-05-07T17:24:23.514Z,33.28
2023-05-07T17:26:52.707Z,33.49
2023-05-07T17:29:21.286Z,33.60
2023-05-07T17:31:49.442Z,34.10
2023-05-07T17:34:17.440Z,34.47
2023-05-07T17:36:46.066Z,34.98
2023-05-07T17:39:13.958Z,35.42
2023-05-07T17:41:41.785Z,35.65
2023-05-07T17:44:11.119Z,36.05
2023-05-07T17:46:39.012Z,36.35
2023-05-07T17:49:06.849Z,36.60
2023-05-07T17:51:49.789Z,36.75
2023-05-07T17:54:21.826Z,37.00
2023-05-07T17:56:49.795Z,37.08
2023-05-07T17:59:19.061Z,37.57
2023-05-07T18:01:47.077Z,37.46
2023-05-07T18:04:15.410Z,37.67
2023-05-07T18:06:43.601Z,37.67
2023-05-07T18:09:11.540Z,37.94
2023-05-07T18:11:39.519Z,38.17
2023-05-07T18:14:07.380Z,38.20
2023-05-07T18:16:36.952Z,38.31
2023-05-07T18:19:04.911Z,38.29
2023-05-07T18:21:32.812Z,38.24
2023-05-07T18:24:00.783Z,38.36
2023-05-07T18:26:28.700Z,38.29
2023-05-07T18:28:56.615Z,38.69
2023-05-07T18:31:24.833Z,38.69
2023-05-07T18:33:56.015Z,38.76
2023-05-07T18:36:25.034Z,38.87
2023-05-07T18:38:53.674Z,39.34
2023-05-07T18:41:21.645Z,39.37
2023-05-07T18:43:49.485Z,39.68
2023-05-07T18:46:17.559Z,39.72
2023-05-07T18:48:45.469Z,39.70
2023-05-07T18:51:14.705Z,39.89
2023-05-07T18:53:42.834Z,39.87
2023-05-07T18:56:10.725Z,40.22
2023-05-07T18:58:38.751Z,40.36
2023-05-07T19:01:08.634Z,40.52
2023-05-07T19:03:36.685Z,40.71
2023-05-07T19:06:05.816Z,41.01
2023-05-07T19:08:35.419Z,41.10
2023-05-07T19:11:03.923Z,41.82
2023-05-07T19:13:31.892Z,41.86
2023-05-07T19:15:59.997Z,42.00
2023-05-07T19:18:29.754Z,41.84
2023-05-07T19:20:57.623Z,42.09
2023-05-07T19:23:26.200Z,42.22
2023-05-07T19:25:55.456Z,42.46
2023-05-07T19:28:23.347Z,42.76
2023-05-07T19:30:52.744Z,42.62
2023-05-07T19:33:20.646Z,43.00
2023-05-07T19:35:48.563Z,43.22
2023-05-07T19:38:16.666Z,43.65
2023-05-07T19:40:44.500Z,43.49
2023-05-07T19:43:13.717Z,44.08
2023-05-07T19:45:43.548Z,44.43
2023-05-07T19:48:11.761Z,44.27
2023-05-07T19:50:39.653Z,44.89
2023-05-07T19:53:07.849Z,45.05
2023-05-07T19:55:35.744Z,45.34
2023-05-07T19:58:03.659Z,45.05
2023-05-07T20:00:34.004Z,45.22
2023-05-07T20:03:02.058Z,45.78
2023-05-07T20:05:29.993Z,45.86
2023-05-07T20:07:58.580Z,46.16
2023-05-07T20:10:26.438Z,46.61
2023-05-07T20:12:54.300Z,46.99
2023-05-07T20:15:23.586Z,47.07
2023-05-07T20:17:52.877Z,47.61
2023-05-07T20:20:21.159Z,47.62
2023-05-07T20:22:49.192Z,48.22
2023-05-07T20:25:17.046Z,47.92
2023-05-07T20:27:44.911Z,48.36
2023-05-07T20:30:14.744Z,48.54
2023-05-07T20:32:43.579Z,48.63
2023-05-07T20:35:13.109Z,48.77
2023-05-07T20:37:41.318Z,48.58
2023-05-07T20:40:10.514Z,48.85
2023-05-07T20:42:38.669Z,48.84
2023-05-07T20:45:08.188Z,49.16
2023-05-07T20:47:36.359Z,49.96
2023-05-07T20:50:04.334Z,49.23
2023-05-07T20:52:33.622Z,49.86
2023-05-07T20:55:01.587Z,49.46
2023-05-07T20:57:29.414Z,49.99
2023-05-07T20:59:57.388Z,49.54
2023-05-07T21:02:25.426Z,49.24
2023-05-07T21:04:54.587Z,49.89
2023-05-07T21:07:22.462Z,50.09
2023-05-07T21:09:51.819Z,49.47
2023-05-07T21:12:19.636Z,49.86
2023-05-07T21:14:47.606Z,49.64
2023-05-07T21:17:15.522Z,49.88
2023-05-07T21:19:44.093Z,49.92
2023-05-07T21:22:12.083Z,50.25
2023-05-07T21:24:41.374Z,49.43
2023-05-07T21:27:10.683Z,49.99
2023-05-07T21:29:38.680Z,50.28
2023-05-07T21:32:06.782Z,50.85
2023-05-07T21:34:35.273Z,50.52
2023-05-07T21:37:03.314Z,50.83
2023-05-07T21:39:31.576Z,50.62
2023-05-07T21:41:59.460Z,50.64
2023-05-07T21:44:29.918Z,50.68
2023-05-07T21:46:57.907Z,51.25
2023-05-07T21:49:25.856Z,51.51
2023-05-07T21:51:53.827Z,51.29
2023-05-07T21:54:21.739Z,51.12
2023-05-07T21:56:50.206Z,50.84
2023-05-07T21:59:18.338Z,51.18
2023-05-07T22:01:47.669Z,51.36
2023-05-07T22:04:15.556Z,51.33
2023-05-07T22:06:43.523Z,51.27
2023-05-07T22:09:11.869Z,51.67
2023-05-07T22:11:39.776Z,52.32
2023-05-07T22:14:07.684Z,52.11
2023-05-07T22:16:35.791Z,52.47
2023-05-07T22:19:05.149Z,52.33
2023-05-07T22:21:33.087Z,52.04
2023-05-07T22:24:01.052Z,52.16
2023-05-07T22:26:28.955Z,52.08
2023-05-07T22:28:56.883Z,51.98
2023-05-07T22:31:24.941Z,52.65
2023-05-07T22:33:52.791Z,52.10
2023-05-07T22:36:22.069Z,52.62
2023-05-07T22:38:50.013Z,52.53
2023-05-07T22:41:17.905Z,52.67
2023-05-07T22:43:45.891Z,52.85
2023-05-07T22:46:14.037Z,53.13
2023-05-07T22:48:41.885Z,53.35
2023-05-07T22:51:13.978Z,53.36
2023-05-07T22:53:43.341Z,53.65
2023-05-07T22:56:11.332Z,53.28
2023-05-07T22:58:39.436Z,53.57
2023-05-07T23:01:13.369Z,54.25
2023-05-07T23:03:41.369Z,54.47
2023-05-07T23:06:09.782Z,54.12
2023-05-07T23:08:37.673Z,54.28
2023-05-07T23:11:07.520Z,53.96
2023-05-07T23:13:35.451Z,55.10
2023-05-07T23:16:03.364Z,54.58
2023-05-07T23:18:32.683Z,55.19
2023-05-07T23:21:00.646Z,55.13
2023-05-07T23:23:33.706Z,55.15
2023-05-07T23:26:01.762Z,54.93
2023-05-07T23:28:31.013Z,55.40
2023-05-07T23:30:58.940Z,55.25
2023-05-07T23:33:26.984Z,55.43
2023-05-07T23:36:00.435Z,56.50
2023-05-07T23:38:28.619Z,55.92
2023-05-07T23:40:56.746Z,56.03
2023-05-07T23:43:25.026Z,55.78
2023-05-07T23:45:54.422Z,56.57
2023-05-07T23:48:22.339Z,56.85
2023-05-07T23:50:50.266Z,56.53
2023-05-07T23:53:18.169Z,56.84
2023-05-07T23:55:45.998Z,56.71
2023-05-07T23:58:14.218Z,56.84
